sensor_id;sensor_type;location;lat;lon;timestamp;P1;durP1;ratioP1;P2;durP2;ratioP2
27293;SDS011;14785;52.556;13.430;2024-01-15T00:01:55;48.65;;;44.08;;
27293;SDS011;14785;52.556;13.430;2024-01-15T00:04:21;42.00;;;38.08;;
27293;SDS011;14785;52.556;13.430;2024-01-15T00:06:46;54.23;;;48.67;;
27293;SDS011;14785;52.556;13.430;2024-01-15T00:09:12;83.87;;;77.23;;
27293;SDS011;14785;52.556;13.430;2024-01-15T00:11:37;81.27;;;74.83;;
27293;SDS011;14785;52.556;13.430;2024-01-15T00:14:03;89.23;;;82.50;;
27293;SDS011;14785;52.556;13.430;2024-01-15T00:16:28;86.13;;;79.70;;
27293;SDS011;14785;52.556;13.430;2024-01-15T00:18:54;93.93;;;86.53;;
27293;SDS011;14785;52.556;13.430;2024-01-15T00:21:19;69.73;;;63.83;;
27293;SDS011;14785;52.556;13.430;2024-01-15T00:23:45;70.17;;;64.27;;
27293;SDS011;14785;52.556;13.430;2024-01-15T00:26:10;76.68;;;70.72;;
27293;SDS011;14785;52.556;13.430;2024-01-15T00:28:36;101.20;;;93.75;;
27293;SDS011;14785;52.556;13.430;2024-01-15T00:33:28;78.50;;;72.43;;
27293;SDS011;14785;52.556;13.430;2024-01-15T00:35:54;93.33;;;86.03;;
27293;SDS011;14785;52.556;13.430;2024-01-15T00:38:19;121.07;;;112.75;;
27293;SDS011;14785;52.556;13.430;2024-01-15T00:40:45;74.27;;;68.43;;
27293;SDS011;14785;52.556;13.430;2024-01-15T00:43:10;96.57;;;89.40;;
27293;SDS011;14785;52.556;13.430;2024-01-15T00:45:36;67.30;;;62.10;;
27293;SDS011;14785;52.556;13.430;2024-01-15T00:48:02;61.95;;;56.72;;
27293;SDS011;14785;52.556;13.430;2024-01-15T00:50:28;62.67;;;56.92;;
27293;SDS011;14785;52.556;13.430;2024-01-15T00:52:54;59.50;;;54.42;;
27293;SDS011;14785;52.556;13.430;2024-01-15T00:55:19;103.23;;;95.93;;
27293;SDS011;14785;52.556;13.430;2024-01-15T00:57:45;97.77;;;90.37;;
27293;SDS011;14785;52.556;13.430;2024-01-15T01:00:10;133.07;;;124.07;;
27293;SDS011;14785;52.556;13.430;2024-01-15T01:02:36;144.90;;;135.20;;
27293;SDS011;14785;52.556;13.430;2024-01-15T01:05:02;102.50;;;94.97;;
27293;SDS011;14785;52.556;13.430;2024-01-15T01:09:53;45.95;;;41.17;;
27293;SDS011;14785;52.556;13.430;2024-01-15T01:12:20;98.07;;;90.47;;
27293;SDS011;14785;52.556;13.430;2024-01-15T01:14:46;105.00;;;97.20;;
27293;SDS011;14785;52.556;13.430;2024-01-15T01:17:11;84.10;;;76.30;;
27293;SDS011;14785;52.556;13.430;2024-01-15T01:19:37;119.63;;;110.43;;
27293;SDS011;14785;52.556;13.430;2024-01-15T01:22:02;170.33;;;158.57;;
27293;SDS011;14785;52.556;13.430;2024-01-15T01:24:28;223.55;;;209.18;;
27293;SDS011;14785;52.556;13.430;2024-01-15T01:26:53;137.90;;;128.17;;
27293;SDS011;14785;52.556;13.430;2024-01-15T01:29:18;167.60;;;155.70;;
27293;SDS011;14785;52.556;13.430;2024-01-15T01:31:44;150.43;;;140.03;;
27293;SDS011;14785;52.556;13.430;2024-01-15T01:34:10;145.32;;;134.88;;
27293;SDS011;14785;52.556;13.430;2024-01-15T01:36:39;109.93;;;101.55;;
27293;SDS011;14785;52.556;13.430;2024-01-15T01:39:04;121.33;;;112.27;;
27293;SDS011;14785;52.556;13.430;2024-01-15T01:41:30;108.00;;;99.55;;
27293;SDS011;14785;52.556;13.430;2024-01-15T01:43:55;97.57;;;90.10;;
27293;SDS011;14785;52.556;13.430;2024-01-15T01:46:22;92.35;;;85.00;;
27293;SDS011;14785;52.556;13.430;2024-01-15T01:51:13;113.13;;;104.28;;
27293;SDS011;14785;52.556;13.430;2024-01-15T01:53:39;148.38;;;138.27;;
27293;SDS011;14785;52.556;13.430;2024-01-15T01:56:05;141.27;;;131.20;;
27293;SDS011;14785;52.556;13.430;2024-01-15T01:58:32;87.57;;;80.35;;
27293;SDS011;14785;52.556;13.430;2024-01-15T02:00:58;99.15;;;91.03;;
27293;SDS011;14785;52.556;13.430;2024-01-15T02:03:24;89.03;;;81.70;;
27293;SDS011;14785;52.556;13.430;2024-01-15T02:05:50;99.38;;;91.30;;
27293;SDS011;14785;52.556;13.430;2024-01-15T02:08:17;101.45;;;94.00;;
27293;SDS011;14785;52.556;13.430;2024-01-15T02:10:43;81.33;;;74.90;;
27293;SDS011;14785;52.556;13.430;2024-01-15T02:13:09;60.20;;;54.83;;
27293;SDS011;14785;52.556;13.430;2024-01-15T02:15:34;64.72;;;58.75;;
27293;SDS011;14785;52.556;13.430;2024-01-15T02:20:26;73.53;;;67.40;;
27293;SDS011;14785;52.556;13.430;2024-01-15T02:22:51;75.33;;;68.87;;
27293;SDS011;14785;52.556;13.430;2024-01-15T02:25:17;70.60;;;64.60;;
27293;SDS011;14785;52.556;13.430;2024-01-15T02:27:43;78.40;;;71.85;;
27293;SDS011;14785;52.556;13.430;2024-01-15T02:30:10;132.63;;;123.30;;
27293;SDS011;14785;52.556;13.430;2024-01-15T02:32:36;203.13;;;191.38;;
27293;SDS011;14785;52.556;13.430;2024-01-15T02:35:02;151.87;;;142.40;;
27293;SDS011;14785;52.556;13.430;2024-01-15T02:37:27;240.47;;;226.50;;
27293;SDS011;14785;52.556;13.430;2024-01-15T02:39:53;196.37;;;184.67;;
27293;SDS011;14785;52.556;13.430;2024-01-15T02:42:18;198.40;;;186.43;;
27293;SDS011;14785;52.556;13.430;2024-01-15T02:44:43;158.43;;;148.20;;
27293;SDS011;14785;52.556;13.430;2024-01-15T02:47:09;80.90;;;75.37;;
27293;SDS011;14785;52.556;13.430;2024-01-15T02:49:34;64.53;;;58.97;;
27293;SDS011;14785;52.556;13.430;2024-01-15T02:51:59;62.27;;;57.30;;
27293;SDS011;14785;52.556;13.430;2024-01-15T02:54:25;78.17;;;72.17;;
27293;SDS011;14785;52.556;13.430;2024-01-15T02:56:50;76.50;;;71.10;;
27293;SDS011;14785;52.556;13.430;2024-01-15T02:59:16;78.15;;;72.45;;
27293;SDS011;14785;52.556;13.430;2024-01-15T03:01:42;50.87;;;46.43;;
27293;SDS011;14785;52.556;13.430;2024-01-15T03:04:07;51.07;;;46.87;;
27293;SDS011;14785;52.556;13.430;2024-01-15T03:06:32;90.20;;;84.37;;
27293;SDS011;14785;52.556;13.430;2024-01-15T03:08:58;84.73;;;78.87;;
27293;SDS011;14785;52.556;13.430;2024-01-15T03:11:23;79.73;;;73.73;;
27293;SDS011;14785;52.556;13.430;2024-01-15T03:13:48;73.40;;;68.30;;
27293;SDS011;14785;52.556;13.430;2024-01-15T03:16:14;82.87;;;77.30;;
27293;SDS011;14785;52.556;13.430;2024-01-15T03:18:39;46.30;;;42.67;;
27293;SDS011;14785;52.556;13.430;2024-01-15T03:21:05;95.57;;;89.33;;
27293;SDS011;14785;52.556;13.430;2024-01-15T03:23:30;108.55;;;101.47;;
27293;SDS011;14785;52.556;13.430;2024-01-15T03:25:56;154.03;;;144.67;;
27293;SDS011;14785;52.556;13.430;2024-01-15T03:28:21;60.63;;;55.63;;
27293;SDS011;14785;52.556;13.430;2024-01-15T03:30:47;114.53;;;106.63;;
27293;SDS011;14785;52.556;13.430;2024-01-15T03:33:12;121.53;;;113.90;;
27293;SDS011;14785;52.556;13.430;2024-01-15T03:35:37;54.40;;;49.80;;
27293;SDS011;14785;52.556;13.430;2024-01-15T03:38:03;78.20;;;71.97;;
27293;SDS011;14785;52.556;13.430;2024-01-15T03:40:30;58.05;;;53.28;;
27293;SDS011;14785;52.556;13.430;2024-01-15T03:42:55;51.60;;;47.33;;
27293;SDS011;14785;52.556;13.430;2024-01-15T03:45:20;66.43;;;61.67;;
27293;SDS011;14785;52.556;13.430;2024-01-15T03:47:46;78.27;;;72.40;;
27293;SDS011;14785;52.556;13.430;2024-01-15T03:50:11;42.13;;;38.77;;
27293;SDS011;14785;52.556;13.430;2024-01-15T03:52:37;49.43;;;45.47;;
27293;SDS011;14785;52.556;13.430;2024-01-15T03:55:03;68.38;;;63.42;;
27293;SDS011;14785;52.556;13.430;2024-01-15T03:57:29;55.45;;;51.08;;
27293;SDS011;14785;52.556;13.430;2024-01-15T03:59:55;62.20;;;57.37;;
27293;SDS011;14785;52.556;13.430;2024-01-15T04:02:20;52.43;;;48.27;;
27293;SDS011;14785;52.556;13.430;2024-01-15T04:04:45;48.27;;;43.77;;
27293;SDS011;14785;52.556;13.430;2024-01-15T04:07:11;47.20;;;43.63;;
27293;SDS011;14785;52.556;13.430;2024-01-15T04:09:36;60.50;;;55.83;;
27293;SDS011;14785;52.556;13.430;2024-01-15T04:14:28;64.22;;;59.00;;
27293;SDS011;14785;52.556;13.430;2024-01-15T04:16:53;56.15;;;51.85;;
27293;SDS011;14785;52.556;13.430;2024-01-15T04:19:19;53.97;;;49.47;;
27293;SDS011;14785;52.556;13.430;2024-01-15T04:21:44;58.80;;;54.20;;
27293;SDS011;14785;52.556;13.430;2024-01-15T04:24:11;51.72;;;47.40;;
27293;SDS011;14785;52.556;13.430;2024-01-15T04:26:36;48.60;;;44.20;;
27293;SDS011;14785;52.556;13.430;2024-01-15T04:29:02;60.57;;;54.77;;
27293;SDS011;14785;52.556;13.430;2024-01-15T04:31:27;58.37;;;53.90;;
27293;SDS011;14785;52.556;13.430;2024-01-15T04:33:53;69.17;;;63.77;;
27293;SDS011;14785;52.556;13.430;2024-01-15T04:36:18;64.57;;;59.97;;
27293;SDS011;14785;52.556;13.430;2024-01-15T04:38:43;50.13;;;45.83;;
27293;SDS011;14785;52.556;13.430;2024-01-15T04:41:12;57.47;;;53.13;;
27293;SDS011;14785;52.556;13.430;2024-01-15T04:43:38;56.65;;;52.28;;
27293;SDS011;14785;52.556;13.430;2024-01-15T04:46:05;74.93;;;69.77;;
27293;SDS011;14785;52.556;13.430;2024-01-15T04:48:31;51.35;;;47.22;;
27293;SDS011;14785;52.556;13.430;2024-01-15T04:50:57;52.17;;;48.07;;
27293;SDS011;14785;52.556;13.430;2024-01-15T04:53:22;54.93;;;50.60;;
27293;SDS011;14785;52.556;13.430;2024-01-15T04:55:47;62.83;;;58.07;;
27293;SDS011;14785;52.556;13.430;2024-01-15T04:58:13;54.67;;;50.63;;
27293;SDS011;14785;52.556;13.430;2024-01-15T05:00:38;48.13;;;44.20;;
27293;SDS011;14785;52.556;13.430;2024-01-15T05:03:04;54.45;;;50.42;;
27293;SDS011;14785;52.556;13.430;2024-01-15T05:05:29;54.50;;;50.20;;
27293;SDS011;14785;52.556;13.430;2024-01-15T05:07:55;49.50;;;45.90;;
27293;SDS011;14785;52.556;13.430;2024-01-15T05:10:20;74.97;;;69.47;;
27293;SDS011;14785;52.556;13.430;2024-01-15T05:12:46;109.57;;;102.23;;
27293;SDS011;14785;52.556;13.430;2024-01-15T05:15:11;163.37;;;152.73;;
27293;SDS011;14785;52.556;13.430;2024-01-15T05:17:36;113.97;;;105.47;;
27293;SDS011;14785;52.556;13.430;2024-01-15T05:20:02;147.57;;;138.50;;
27293;SDS011;14785;52.556;13.430;2024-01-15T05:22:28;80.13;;;74.53;;
27293;SDS011;14785;52.556;13.430;2024-01-15T05:24:53;201.53;;;189.57;;
27293;SDS011;14785;52.556;13.430;2024-01-15T05:27:19;114.97;;;107.50;;
27293;SDS011;14785;52.556;13.430;2024-01-15T05:29:44;108.60;;;101.43;;
27293;SDS011;14785;52.556;13.430;2024-01-15T05:32:10;107.00;;;100.13;;
27293;SDS011;14785;52.556;13.430;2024-01-15T05:34:35;87.90;;;81.77;;
27293;SDS011;14785;52.556;13.430;2024-01-15T05:37:00;80.43;;;75.27;;
27293;SDS011;14785;52.556;13.430;2024-01-15T05:39:26;109.20;;;102.77;;
27293;SDS011;14785;52.556;13.430;2024-01-15T05:44:17;85.73;;;80.33;;
27293;SDS011;14785;52.556;13.430;2024-01-15T05:46:43;120.33;;;112.67;;
27293;SDS011;14785;52.556;13.430;2024-01-15T05:49:08;149.47;;;140.30;;
27293;SDS011;14785;52.556;13.430;2024-01-15T05:51:35;50.35;;;46.35;;
27293;SDS011;14785;52.556;13.430;2024-01-15T05:54:00;57.17;;;53.00;;
27293;SDS011;14785;52.556;13.430;2024-01-15T05:56:26;79.43;;;74.57;;
27293;SDS011;14785;52.556;13.430;2024-01-15T05:58:51;151.50;;;142.60;;
27293;SDS011;14785;52.556;13.430;2024-01-15T06:01:17;91.70;;;86.00;;
27293;SDS011;14785;52.556;13.430;2024-01-15T06:03:42;118.70;;;110.87;;
27293;SDS011;14785;52.556;13.430;2024-01-15T06:06:08;77.47;;;72.07;;
27293;SDS011;14785;52.556;13.430;2024-01-15T06:11:00;30.77;;;28.05;;
27293;SDS011;14785;52.556;13.430;2024-01-15T06:13:25;37.63;;;34.57;;
27293;SDS011;14785;52.556;13.430;2024-01-15T06:15:51;61.15;;;56.20;;
27293;SDS011;14785;52.556;13.430;2024-01-15T06:18:17;68.28;;;62.97;;
27293;SDS011;14785;52.556;13.430;2024-01-15T06:20:42;62.90;;;57.77;;
27293;SDS011;14785;52.556;13.430;2024-01-15T06:23:08;80.00;;;74.87;;
27293;SDS011;14785;52.556;13.430;2024-01-15T06:25:33;63.20;;;58.87;;
27293;SDS011;14785;52.556;13.430;2024-01-15T06:27:59;151.23;;;142.03;;
27293;SDS011;14785;52.556;13.430;2024-01-15T06:30:24;53.75;;;49.78;;
27293;SDS011;14785;52.556;13.430;2024-01-15T06:32:51;38.15;;;35.05;;
27293;SDS011;14785;52.556;13.430;2024-01-15T06:35:17;44.07;;;40.87;;
27293;SDS011;14785;52.556;13.430;2024-01-15T06:37:43;62.70;;;57.90;;
27293;SDS011;14785;52.556;13.430;2024-01-15T06:40:09;197.50;;;186.20;;
27293;SDS011;14785;52.556;13.430;2024-01-15T06:42:35;145.02;;;135.60;;
27293;SDS011;14785;52.556;13.430;2024-01-15T06:45:00;68.43;;;63.97;;
27293;SDS011;14785;52.556;13.430;2024-01-15T06:47:25;72.57;;;68.07;;
27293;SDS011;14785;52.556;13.430;2024-01-15T06:49:51;96.87;;;90.30;;
27293;SDS011;14785;52.556;13.430;2024-01-15T06:52:17;84.47;;;78.68;;
27293;SDS011;14785;52.556;13.430;2024-01-15T06:54:42;113.50;;;106.40;;
27293;SDS011;14785;52.556;13.430;2024-01-15T06:57:08;111.07;;;103.70;;
27293;SDS011;14785;52.556;13.430;2024-01-15T06:59:33;104.60;;;97.30;;
27293;SDS011;14785;52.556;13.430;2024-01-15T07:02:00;119.82;;;112.55;;
27293;SDS011;14785;52.556;13.430;2024-01-15T07:04:26;109.70;;;102.60;;
27293;SDS011;14785;52.556;13.430;2024-01-15T07:06:52;101.10;;;94.63;;
27293;SDS011;14785;52.556;13.430;2024-01-15T07:09:17;54.80;;;50.43;;
27293;SDS011;14785;52.556;13.430;2024-01-15T07:11:46;56.70;;;52.55;;
27293;SDS011;14785;52.556;13.430;2024-01-15T07:14:12;63.92;;;59.17;;
27293;SDS011;14785;52.556;13.430;2024-01-15T07:16:37;105.45;;;98.05;;
27293;SDS011;14785;52.556;13.430;2024-01-15T07:19:03;72.00;;;66.23;;
27293;SDS011;14785;52.556;13.430;2024-01-15T07:21:28;119.27;;;111.87;;
27293;SDS011;14785;52.556;13.430;2024-01-15T07:23:55;69.90;;;65.00;;
27293;SDS011;14785;52.556;13.430;2024-01-15T07:26:20;72.43;;;67.20;;
27293;SDS011;14785;52.556;13.430;2024-01-15T07:28:46;67.90;;;62.42;;
27293;SDS011;14785;52.556;13.430;2024-01-15T07:31:11;150.37;;;140.87;;
27293;SDS011;14785;52.556;13.430;2024-01-15T07:33:37;137.00;;;128.57;;
27293;SDS011;14785;52.556;13.430;2024-01-15T07:36:02;34.60;;;27.97;;
27293;SDS011;14785;52.556;13.430;2024-01-15T07:38:28;35.95;;;32.72;;
27293;SDS011;14785;52.556;13.430;2024-01-15T07:40:54;42.50;;;38.57;;
27293;SDS011;14785;52.556;13.430;2024-01-15T07:43:20;41.40;;;37.45;;
27293;SDS011;14785;52.556;13.430;2024-01-15T07:45:45;50.57;;;46.37;;
27293;SDS011;14785;52.556;13.430;2024-01-15T07:48:11;38.05;;;31.95;;
27293;SDS011;14785;52.556;13.430;2024-01-15T07:50:37;61.20;;;56.42;;
27293;SDS011;14785;52.556;13.430;2024-01-15T07:53:02;51.80;;;47.47;;
27293;SDS011;14785;52.556;13.430;2024-01-15T07:57:54;66.03;;;60.03;;
27293;SDS011;14785;52.556;13.430;2024-01-15T08:00:23;213.38;;;200.98;;
27293;SDS011;14785;52.556;13.430;2024-01-15T08:02:49;69.90;;;64.20;;
27293;SDS011;14785;52.556;13.430;2024-01-15T08:05:15;58.92;;;54.72;;
27293;SDS011;14785;52.556;13.430;2024-01-15T08:07:41;66.47;;;60.67;;
27293;SDS011;14785;52.556;13.430;2024-01-15T08:10:06;53.67;;;49.13;;
27293;SDS011;14785;52.556;13.430;2024-01-15T08:12:32;47.40;;;43.33;;
27293;SDS011;14785;52.556;13.430;2024-01-15T08:14:57;49.50;;;45.57;;
27293;SDS011;14785;52.556;13.430;2024-01-15T08:17:23;51.70;;;46.83;;
27293;SDS011;14785;52.556;13.430;2024-01-15T08:19:53;42.15;;;38.10;;
27293;SDS011;14785;52.556;13.430;2024-01-15T08:22:18;41.97;;;38.70;;
27293;SDS011;14785;52.556;13.430;2024-01-15T08:24:44;47.90;;;44.07;;
27293;SDS011;14785;52.556;13.430;2024-01-15T08:27:09;56.95;;;52.17;;
27293;SDS011;14785;52.556;13.430;2024-01-15T08:29:35;59.13;;;54.60;;
27293;SDS011;14785;52.556;13.430;2024-01-15T08:32:00;82.00;;;76.07;;
27293;SDS011;14785;52.556;13.430;2024-01-15T08:34:26;83.35;;;78.05;;
27293;SDS011;14785;52.556;13.430;2024-01-15T08:36:51;75.23;;;70.03;;
27293;SDS011;14785;52.556;13.430;2024-01-15T08:39:18;101.90;;;95.60;;
27293;SDS011;14785;52.556;13.430;2024-01-15T08:41:44;97.72;;;91.25;;
27293;SDS011;14785;52.556;13.430;2024-01-15T08:44:11;55.67;;;51.10;;
27293;SDS011;14785;52.556;13.430;2024-01-15T08:46:37;47.35;;;43.47;;
27293;SDS011;14785;52.556;13.430;2024-01-15T08:49:02;55.80;;;51.37;;
27293;SDS011;14785;52.556;13.430;2024-01-15T08:51:28;58.70;;;54.60;;
27293;SDS011;14785;52.556;13.430;2024-01-15T08:53:58;61.83;;;56.58;;
27293;SDS011;14785;52.556;13.430;2024-01-15T08:56:25;88.15;;;82.20;;
27293;SDS011;14785;52.556;13.430;2024-01-15T08:58:52;99.22;;;92.65;;
27293;SDS011;14785;52.556;13.430;2024-01-15T09:01:17;26.70;;;24.13;;
27293;SDS011;14785;52.556;13.430;2024-01-15T09:03:44;38.38;;;34.97;;
27293;SDS011;14785;52.556;13.430;2024-01-15T09:06:10;40.40;;;37.03;;
27293;SDS011;14785;52.556;13.430;2024-01-15T09:08:35;107.53;;;100.00;;
27293;SDS011;14785;52.556;13.430;2024-01-15T09:11:02;83.43;;;77.72;;
27293;SDS011;14785;52.556;13.430;2024-01-15T09:13:28;112.70;;;105.05;;
27293;SDS011;14785;52.556;13.430;2024-01-15T09:15:54;81.70;;;76.00;;
27293;SDS011;14785;52.556;13.430;2024-01-15T09:18:19;43.33;;;38.43;;
27293;SDS011;14785;52.556;13.430;2024-01-15T09:20:45;31.70;;;28.67;;
27293;SDS011;14785;52.556;13.430;2024-01-15T09:23:11;36.75;;;33.47;;
27293;SDS011;14785;52.556;13.430;2024-01-15T09:25:37;38.38;;;34.90;;
27293;SDS011;14785;52.556;13.430;2024-01-15T09:28:02;80.70;;;75.00;;
27293;SDS011;14785;52.556;13.430;2024-01-15T09:30:28;96.40;;;90.18;;
27293;SDS011;14785;52.556;13.430;2024-01-15T09:32:53;145.80;;;137.23;;
27293;SDS011;14785;52.556;13.430;2024-01-15T09:35:19;81.57;;;76.10;;
27293;SDS011;14785;52.556;13.430;2024-01-15T09:37:44;123.00;;;115.43;;
27293;SDS011;14785;52.556;13.430;2024-01-15T09:40:12;29.05;;;23.67;;
27293;SDS011;14785;52.556;13.430;2024-01-15T09:42:40;54.33;;;50.08;;
27293;SDS011;14785;52.556;13.430;2024-01-15T09:45:07;82.95;;;77.43;;
27293;SDS011;14785;52.556;13.430;2024-01-15T09:47:34;51.17;;;47.03;;
27293;SDS011;14785;52.556;13.430;2024-01-15T09:50:02;30.65;;;27.63;;
27293;SDS011;14785;52.556;13.430;2024-01-15T09:54:55;55.08;;;51.35;;
27293;SDS011;14785;52.556;13.430;2024-01-15T09:57:21;39.45;;;35.97;;
27293;SDS011;14785;52.556;13.430;2024-01-15T09:59:46;39.60;;;35.83;;
27293;SDS011;14785;52.556;13.430;2024-01-15T10:02:13;31.67;;;28.60;;
27293;SDS011;14785;52.556;13.430;2024-01-15T10:04:43;22.88;;;19.60;;
27293;SDS011;14785;52.556;13.430;2024-01-15T10:09:35;55.20;;;50.70;;
27293;SDS011;14785;52.556;13.430;2024-01-15T10:12:01;34.73;;;31.80;;
27293;SDS011;14785;52.556;13.430;2024-01-15T10:14:26;46.30;;;43.17;;
27293;SDS011;14785;52.556;13.430;2024-01-15T10:16:52;38.90;;;35.80;;
27293;SDS011;14785;52.556;13.430;2024-01-15T10:19:17;29.53;;;27.27;;
27293;SDS011;14785;52.556;13.430;2024-01-15T10:21:42;26.80;;;24.60;;
27293;SDS011;14785;52.556;13.430;2024-01-15T10:24:08;26.70;;;24.43;;
27293;SDS011;14785;52.556;13.430;2024-01-15T10:26:33;27.08;;;20.75;;
27293;SDS011;14785;52.556;13.430;2024-01-15T10:28:59;32.17;;;29.60;;
27293;SDS011;14785;52.556;13.430;2024-01-15T10:31:25;30.48;;;28.25;;
27293;SDS011;14785;52.556;13.430;2024-01-15T10:33:52;31.67;;;29.25;;
27293;SDS011;14785;52.556;13.430;2024-01-15T10:36:17;43.38;;;40.63;;
27293;SDS011;14785;52.556;13.430;2024-01-15T10:38:43;90.78;;;85.45;;
27293;SDS011;14785;52.556;13.430;2024-01-15T10:41:09;83.30;;;77.90;;
27293;SDS011;14785;52.556;13.430;2024-01-15T10:43:35;75.85;;;71.07;;
27293;SDS011;14785;52.556;13.430;2024-01-15T10:46:04;52.42;;;49.00;;
27293;SDS011;14785;52.556;13.430;2024-01-15T10:48:29;68.82;;;64.63;;
27293;SDS011;14785;52.556;13.430;2024-01-15T10:50:56;91.80;;;86.72;;
27293;SDS011;14785;52.556;13.430;2024-01-15T10:53:23;65.43;;;61.30;;
27293;SDS011;14785;52.556;13.430;2024-01-15T10:55:50;56.70;;;52.92;;
27293;SDS011;14785;52.556;13.430;2024-01-15T11:00:42;63.25;;;59.10;;
27293;SDS011;14785;52.556;13.430;2024-01-15T11:03:10;91.38;;;86.25;;
27293;SDS011;14785;52.556;13.430;2024-01-15T11:05:39;82.20;;;76.97;;
27293;SDS011;14785;52.556;13.430;2024-01-15T11:08:08;89.45;;;84.22;;
27293;SDS011;14785;52.556;13.430;2024-01-15T11:10:38;79.82;;;75.22;;
27293;SDS011;14785;52.556;13.430;2024-01-15T11:13:53;107.38;;;101.15;;
27293;SDS011;14785;52.556;13.430;2024-01-15T11:15:56;95.35;;;90.05;;
27293;SDS011;14785;52.556;13.430;2024-01-15T11:18:26;149.13;;;140.73;;
27293;SDS011;14785;52.556;13.430;2024-01-15T11:28:56;125.97;;;119.13;;
27293;SDS011;14785;52.556;13.430;2024-01-15T11:31:30;70.18;;;66.38;;
27293;SDS011;14785;52.556;13.430;2024-01-15T11:34:12;60.63;;;56.90;;
27293;SDS011;14785;52.556;13.430;2024-01-15T11:41:56;37.03;;;34.80;;
27293;SDS011;14785;52.556;13.430;2024-01-15T11:44:23;20.67;;;18.85;;
27293;SDS011;14785;52.556;13.430;2024-01-15T11:46:57;58.58;;;55.28;;
27293;SDS011;14785;52.556;13.430;2024-01-15T11:52:26;59.72;;;56.28;;
27293;SDS011;14785;52.556;13.430;2024-01-15T11:55:02;59.58;;;56.08;;
27293;SDS011;14785;52.556;13.430;2024-01-15T11:57:51;82.72;;;77.57;;
27293;SDS011;14785;52.556;13.430;2024-01-15T12:00:16;81.57;;;76.63;;
27293;SDS011;14785;52.556;13.430;2024-01-15T12:02:43;65.93;;;61.90;;
27293;SDS011;14785;52.556;13.430;2024-01-15T12:05:11;102.50;;;96.63;;
27293;SDS011;14785;52.556;13.430;2024-01-15T12:07:40;86.50;;;81.63;;
27293;SDS011;14785;52.556;13.430;2024-01-15T12:15:22;50.00;;;46.88;;
27293;SDS011;14785;52.556;13.430;2024-01-15T12:17:48;43.90;;;41.05;;
27293;SDS011;14785;52.556;13.430;2024-01-15T12:20:14;54.90;;;51.40;;
27293;SDS011;14785;52.556;13.430;2024-01-15T12:22:41;41.15;;;38.67;;
27293;SDS011;14785;52.556;13.430;2024-01-15T12:25:06;44.33;;;41.58;;
27293;SDS011;14785;52.556;13.430;2024-01-15T12:27:33;84.25;;;79.18;;
27293;SDS011;14785;52.556;13.430;2024-01-15T12:29:59;51.50;;;48.60;;
27293;SDS011;14785;52.556;13.430;2024-01-15T12:32:24;59.03;;;55.57;;
27293;SDS011;14785;52.556;13.430;2024-01-15T12:34:50;68.70;;;64.70;;
27293;SDS011;14785;52.556;13.430;2024-01-15T12:37:18;67.93;;;64.07;;
27293;SDS011;14785;52.556;13.430;2024-01-15T12:39:47;38.15;;;35.92;;
27293;SDS011;14785;52.556;13.430;2024-01-15T12:42:16;50.47;;;47.35;;
27293;SDS011;14785;52.556;13.430;2024-01-15T12:47:07;74.60;;;70.63;;
27293;SDS011;14785;52.556;13.430;2024-01-15T12:49:33;66.18;;;62.63;;
27293;SDS011;14785;52.556;13.430;2024-01-15T12:51:58;70.60;;;66.67;;
27293;SDS011;14785;52.556;13.430;2024-01-15T12:54:25;78.38;;;74.05;;
27293;SDS011;14785;52.556;13.430;2024-01-15T12:56:51;76.90;;;72.63;;
27293;SDS011;14785;52.556;13.430;2024-01-15T12:59:17;63.50;;;59.92;;
27293;SDS011;14785;52.556;13.430;2024-01-15T13:01:49;50.15;;;47.35;;
27293;SDS011;14785;52.556;13.430;2024-01-15T13:04:24;29.73;;;27.98;;
27293;SDS011;14785;52.556;13.430;2024-01-15T13:06:50;55.00;;;51.88;;
27293;SDS011;14785;52.556;13.430;2024-01-15T13:09:16;46.20;;;43.75;;
27293;SDS011;14785;52.556;13.430;2024-01-15T13:11:42;37.33;;;35.25;;
27293;SDS011;14785;52.556;13.430;2024-01-15T13:14:11;37.60;;;35.53;;
27293;SDS011;14785;52.556;13.430;2024-01-15T13:16:38;69.15;;;65.55;;
27293;SDS011;14785;52.556;13.430;2024-01-15T13:19:10;35.63;;;33.78;;
27293;SDS011;14785;52.556;13.430;2024-01-15T13:21:41;62.80;;;59.40;;
27293;SDS011;14785;52.556;13.430;2024-01-15T13:24:07;41.78;;;39.40;;
27293;SDS011;14785;52.556;13.430;2024-01-15T13:26:35;44.40;;;41.93;;
27293;SDS011;14785;52.556;13.430;2024-01-15T13:29:02;32.58;;;30.65;;
27293;SDS011;14785;52.556;13.430;2024-01-15T13:31:28;59.53;;;55.95;;
27293;SDS011;14785;52.556;13.430;2024-01-15T13:33:54;45.90;;;43.38;;
27293;SDS011;14785;52.556;13.430;2024-01-15T13:36:21;47.72;;;45.10;;
27293;SDS011;14785;52.556;13.430;2024-01-15T13:38:48;51.05;;;47.55;;
27293;SDS011;14785;52.556;13.430;2024-01-15T13:41:15;46.38;;;43.63;;
27293;SDS011;14785;52.556;13.430;2024-01-15T13:43:43;45.17;;;42.70;;
27293;SDS011;14785;52.556;13.430;2024-01-15T13:46:12;44.35;;;41.92;;
27293;SDS011;14785;52.556;13.430;2024-01-15T13:48:38;74.83;;;70.83;;
27293;SDS011;14785;52.556;13.430;2024-01-15T13:51:03;62.93;;;58.83;;
27293;SDS011;14785;52.556;13.430;2024-01-15T13:53:29;33.40;;;31.40;;
27293;SDS011;14785;52.556;13.430;2024-01-15T13:55:54;44.10;;;41.17;;
27293;SDS011;14785;52.556;13.430;2024-01-15T13:58:21;38.15;;;35.95;;
27293;SDS011;14785;52.556;13.430;2024-01-15T14:00:47;43.77;;;40.57;;
27293;SDS011;14785;52.556;13.430;2024-01-15T14:03:13;53.83;;;50.95;;
27293;SDS011;14785;52.556;13.430;2024-01-15T14:05:39;48.47;;;45.55;;
27293;SDS011;14785;52.556;13.430;2024-01-15T14:08:05;35.60;;;33.50;;
27293;SDS011;14785;52.556;13.430;2024-01-15T14:10:30;48.95;;;45.97;;
27293;SDS011;14785;52.556;13.430;2024-01-15T14:12:56;43.27;;;40.67;;
27293;SDS011;14785;52.556;13.430;2024-01-15T14:15:21;55.37;;;51.57;;
27293;SDS011;14785;52.556;13.430;2024-01-15T14:17:47;54.53;;;51.47;;
27293;SDS011;14785;52.556;13.430;2024-01-15T14:20:12;28.73;;;26.77;;
27293;SDS011;14785;52.556;13.430;2024-01-15T14:22:38;34.27;;;32.07;;
27293;SDS011;14785;52.556;13.430;2024-01-15T14:25:03;43.58;;;40.65;;
27293;SDS011;14785;52.556;13.430;2024-01-15T14:27:31;28.83;;;26.92;;
27293;SDS011;14785;52.556;13.430;2024-01-15T14:29:57;55.95;;;52.55;;
27293;SDS011;14785;52.556;13.430;2024-01-15T14:32:22;49.83;;;46.83;;
27293;SDS011;14785;52.556;13.430;2024-01-15T14:34:48;45.47;;;42.53;;
27293;SDS011;14785;52.556;13.430;2024-01-15T14:37:14;46.55;;;43.72;;
27293;SDS011;14785;52.556;13.430;2024-01-15T14:39:39;38.97;;;36.47;;
27293;SDS011;14785;52.556;13.430;2024-01-15T14:42:05;64.65;;;60.85;;
27293;SDS011;14785;52.556;13.430;2024-01-15T14:44:31;102.47;;;96.50;;
27293;SDS011;14785;52.556;13.430;2024-01-15T14:46:58;68.28;;;64.18;;
27293;SDS011;14785;52.556;13.430;2024-01-15T14:49:24;93.50;;;88.03;;